createdAt,value
2018-07-27T16:59:40.051Z,19.26
2018-07-27T17:02:09.148Z,18.98
2018-07-27T17:04:38.407Z,18.92
2018-07-27T17:07:07.586Z,18.42
2018-07-27T17:09:36.830Z,19.72
2018-07-27T17:12:06.132Z,19.76
2018-07-27T17:14:35.538Z,18.55
2018-07-27T17:17:04.713Z,19.51
2018-07-27T17:19:34.808Z,19.28
2018-07-27T17:22:04.171Z,19.63
2018-07-27T17:24:33.401Z,19.46
2018-07-27T17:27:02.586Z,19.19
2018-07-27T17:29:32.347Z,19.70
2018-07-27T17:32:01.547Z,18.84
2018-07-27T17:34:30.689Z,19.31
2018-07-27T17:36:59.781Z,19.83
2018-07-27T17:39:28.890Z,19.93
2018-07-27T17:41:58.107Z,20.38
2018-07-27T17:44:27.276Z,19.82
2018-07-27T17:46:56.395Z,19.63
2018-07-27T17:49:25.602Z,20.07
2018-07-27T17:51:54.886Z,20.32
2018-07-27T17:54:24.074Z,20.28
2018-07-27T17:56:53.227Z,21.24
2018-07-27T17:59:22.454Z,19.60
2018-07-27T18:01:51.392Z,19.74
2018-07-27T18:04:20.483Z,19.82
2018-07-27T18:06:49.680Z,19.92
2018-07-27T18:09:18.887Z,20.10
2018-07-27T18:11:48.275Z,20.95
2018-07-27T18:14:17.779Z,21.06
2018-07-27T18:16:47.174Z,22.79
2018-07-27T18:19:16.283Z,22.65
2018-07-27T18:21:45.530Z,23.67
2018-07-27T18:24:14.634Z,24.15
2018-07-27T18:26:43.778Z,24.42
2018-07-27T18:29:12.638Z,23.82
2018-07-27T18:31:48.535Z,24.26
2018-07-27T18:34:17.661Z,24.55
2018-07-27T18:36:46.764Z,24.24
2018-07-27T18:39:15.926Z,25.53
2018-07-27T18:41:45.072Z,24.85
2018-07-27T18:44:14.203Z,24.97
2018-07-27T18:46:43.366Z,25.22
2018-07-27T18:49:12.495Z,25.16
2018-07-27T18:51:41.408Z,25.21
2018-07-27T18:54:10.603Z,25.73
2018-07-27T18:56:39.783Z,25.09
2018-07-27T18:59:08.911Z,24.68
2018-07-27T19:01:38.202Z,25.00
2018-07-27T19:04:07.666Z,25.24
2018-07-27T19:06:36.791Z,24.73
2018-07-27T19:09:10.430Z,24.20
2018-07-27T19:11:39.692Z,24.41
2018-07-27T19:14:08.875Z,24.29
2018-07-27T19:16:38.218Z,25.28
2018-07-27T19:19:07.436Z,25.93
2018-07-27T19:21:36.711Z,26.19
2018-07-27T19:24:06.135Z,25.83
2018-07-27T19:26:35.254Z,25.25
2018-07-27T19:29:04.477Z,26.21
2018-07-27T19:31:33.655Z,25.88
2018-07-27T19:34:02.839Z,25.85
2018-07-27T19:36:32.027Z,25.88
2018-07-27T19:39:01.319Z,26.66
2018-07-27T19:41:30.831Z,26.89
2018-07-27T19:44:00.168Z,26.09
2018-07-27T19:46:29.313Z,26.84
2018-07-27T19:48:58.692Z,27.98
2018-07-27T19:51:27.727Z,27.68
2018-07-27T19:53:56.855Z,27.31
2018-07-27T19:56:26.033Z,27.74
2018-07-27T19:58:56.450Z,27.60
2018-07-27T20:01:25.842Z,27.63
2018-07-27T20:03:55.855Z,28.68
2018-07-27T20:06:25.044Z,27.76
2018-07-27T20:08:54.318Z,28.82
2018-07-27T20:11:23.580Z,27.97
2018-07-27T20:13:52.778Z,29.21
2018-07-27T20:16:25.188Z,28.34
2018-07-27T20:18:54.407Z,29.59
2018-07-27T20:21:23.437Z,29.23
2018-07-27T20:23:52.468Z,29.23
2018-07-27T20:26:21.743Z,29.62
2018-07-27T20:28:50.934Z,30.00
2018-07-27T20:31:20.027Z,29.99
2018-07-27T20:33:49.566Z,29.77
2018-07-27T20:36:18.796Z,29.30
2018-07-27T20:38:48.179Z,30.45
2018-07-27T20:41:17.696Z,29.77
2018-07-27T20:43:47.102Z,31.02
2018-07-27T20:46:16.336Z,29.78
2018-07-27T20:48:45.541Z,30.85
2018-07-27T20:51:14.783Z,30.67
2018-07-27T20:53:43.971Z,30.07
2018-07-27T20:56:13.092Z,29.93
2018-07-27T20:58:42.266Z,31.23
2018-07-27T21:01:11.286Z,30.42
2018-07-27T21:03:40.552Z,30.47
2018-07-27T21:06:09.727Z,31.27
2018-07-27T21:08:38.889Z,30.30
2018-07-27T21:11:18.232Z,30.59
2018-07-27T21:13:51.355Z,31.25
2018-07-27T21:16:20.652Z,30.71
2018-07-27T21:18:49.879Z,31.51
2018-07-27T21:21:19.037Z,30.57
2018-07-27T21:23:48.365Z,31.34
2018-07-27T21:26:17.582Z,30.69
2018-07-27T21:28:46.883Z,30.58
2018-07-27T21:31:16.028Z,30.92
2018-07-27T21:33:45.282Z,31.58
2018-07-27T21:36:14.461Z,32.06
2018-07-27T21:38:43.756Z,31.95
2018-07-27T21:41:13.103Z,32.19
2018-07-27T21:43:42.350Z,32.17
2018-07-27T21:46:11.591Z,32.37
2018-07-27T21:48:40.750Z,32.32
2018-07-27T21:51:10.053Z,32.17
2018-07-27T21:53:39.251Z,31.44
2018-07-27T21:56:08.530Z,31.96
2018-07-27T21:58:37.736Z,32.28
2018-07-27T22:01:06.916Z,31.09
2018-07-27T22:03:36.865Z,32.28
2018-07-27T22:06:06.446Z,32.00
2018-07-27T22:08:35.719Z,31.79
2018-07-27T22:11:05.136Z,31.97
2018-07-27T22:13:34.291Z,32.09
2018-07-27T22:16:03.464Z,31.49
2018-07-27T22:18:33.122Z,32.46
2018-07-27T22:21:02.308Z,31.85
2018-07-27T22:23:32.630Z,32.55
2018-07-27T22:26:02.040Z,32.38
2018-07-27T22:28:31.196Z,32.49
2018-07-27T22:31:00.348Z,33.31
2018-07-27T22:33:29.586Z,33.58
2018-07-27T22:35:58.707Z,33.67
2018-07-27T22:38:27.894Z,33.04
2018-07-27T22:40:56.984Z,34.01
2018-07-27T22:43:26.091Z,33.66
2018-07-27T22:45:55.180Z,34.26
2018-07-27T22:48:24.296Z,33.80
2018-07-27T22:50:53.485Z,34.87
2018-07-27T22:53:22.660Z,34.55
2018-07-27T22:55:51.768Z,35.00
2018-07-27T22:58:20.917Z,34.20
2018-07-27T23:00:50.081Z,34.02
2018-07-27T23:03:19.223Z,35.11
2018-07-27T23:05:48.656Z,34.97
2018-07-27T23:08:17.780Z,34.37
2018-07-27T23:10:46.987Z,34.08
2018-07-27T23:13:16.190Z,34.29
2018-07-27T23:15:45.320Z,35.51
2018-07-27T23:18:14.523Z,35.57
2018-07-27T23:20:43.680Z,34.89
2018-07-27T23:23:12.778Z,35.88
2018-07-27T23:25:41.941Z,35.86
2018-07-27T23:28:11.088Z,35.23
2018-07-27T23:30:40.216Z,35.34
2018-07-27T23:33:09.372Z,35.72
2018-07-27T23:35:38.478Z,36.48
2018-07-27T23:38:07.556Z,35.85
2018-07-27T23:40:36.670Z,36.18
2018-07-27T23:43:05.826Z,36.55
2018-07-27T23:45:34.790Z,37.05
2018-07-27T23:48:03.953Z,36.79
2018-07-27T23:50:33.023Z,36.49
2018-07-27T23:53:01.938Z,37.64
2018-07-27T23:55:31.139Z,36.93
2018-07-27T23:58:00.234Z,37.09
